LGRPLGSM

Guest
Details From LGRP - Diagoras
To LGSM - Samos
Flight Number -
Tags Routegen Generated
Created
Modified
Stats Distance 104 nm / 193 km
Max Altitude 300 ft / 91 m
Waypoints 12
Social Downloads 8
Likes 0
Share VATSIM

Download

Looking for another format? Having issues loading an existing format? Contact us
Advertisement - Login to hide

Notes

Departing runway 24 LGRP. Arriving runway 9 LGSM.

Route

LGRP +36.38_+027.98 +36.38_+027.91 +36.40_+027.84 +36.43_+027.79 +36.48_+027.75 +36.94_+027.51 +37.57_+027.17 +37.62_+027.13 +37.66_+027.08 +37.68_+027.01 LGSM

ID Type Via Altitude Latitude Longitude Leg Dist Tot Dist Heading (true) Name
O LGRP APT - 0 ft / 0 m 36.40034˚ 28.06887˚ - 0 nm - -
+36.38_+027.98 LATLON - 300 ft / 91 m 36.37555˚ 27.98442˚ 4 nm 4 nm 250° / 250° -
+36.38_+027.91 LATLON - 300 ft / 91 m 36.37552˚ 27.91251˚ 3 nm 7 nm 270° / 270° -
+36.40_+027.84 LATLON - 300 ft / 91 m 36.39529˚ 27.84492˚ 3 nm 11 nm 290° / 290° -
+36.43_+027.79 LATLON - 300 ft / 91 m 36.43248˚ 27.78979˚ 3 nm 14 nm 310° / 310° -
+36.48_+027.75 LATLON - 300 ft / 91 m 36.48260˚ 27.75378˚ 3 nm 18 nm 330° / 330° -
+36.94_+027.51 LATLON - 300 ft / 91 m 36.94256˚ 27.50506˚ 30 nm 48 nm 337° / 336° -
+37.57_+027.17 LATLON - 300 ft / 91 m 37.56736˚ 27.16522˚ 40 nm 89 nm 337° / 336° -
+37.62_+027.13 LATLON - 300 ft / 91 m 37.61941˚ 27.13323˚ 3 nm 92 nm 334° / 334° -
+37.66_+027.08 LATLON - 300 ft / 91 m 37.65966˚ 27.08068˚ 3 nm 96 nm 314° / 314° -
+37.68_+027.01 LATLON - 300 ft / 91 m 37.68325˚ 27.01389˚ 3 nm 99 nm 294° / 294° -
O LGSM APT - 0 ft / 0 m 37.68837˚ 26.92268˚ 4 nm 104 nm 274° / 274° -

Altitude Profile

Advertisement - Login to hide

LGRP

Details ICAO LGRP (RHO)
Name DIAGORAS
Region Greece
Timezone Europe/Athens (UTC+2.0)
Stats Elevation 17 ft / 5 m (AMSL)
Location 36.405420° 28.086193°
Runways 1
Magnetic Variation 4.780° E

METAR

LGRP 131520Z 26016KT 9999 FEW015 18/14 Q1019 NOSIG

Decode

TAF

TAF LGRP 131100Z 1312/1412 29015KT 9999 FEW015 TEMPO 1312/1412 FEW015 SCT050

Decode

Departure Runways

ID Width Length Bearing (true) Bearing (mag) Surface Threshold Offset Overrun Length
07 148 ft / 45 m 10,830 ft / 3,301 m 69.97° 65.19° Asphalt 0 ft / 0 m 0 ft / 0 m
25 148 ft / 45 m 10,830 ft / 3,301 m 249.99° 245.21° Asphalt 0 ft / 0 m 0 ft / 0 m

LGSM

Details ICAO LGSM (SMI)
Name SAMOS
Region Greece
Timezone Europe/Athens (UTC+2.0)
Stats Elevation 19 ft / 6 m (AMSL)
Location 37.689012° 26.911123°
Runways 1
Magnetic Variation 4.801° E

METAR

LGSM 131520Z 00000KT 9999 FEW018 17/14 Q1020

Decode

TAF

Not found

Destination Runways

ID Width Length Bearing (true) Bearing (mag) Surface Threshold Offset Overrun Length
09 148 ft / 45 m 6,690 ft / 2,039 m 94.02° 89.22° Asphalt 230 ft / 70 m 0 ft / 0 m
27 148 ft / 45 m 6,690 ft / 2,039 m 274.03° 269.23° Asphalt 0 ft / 0 m 0 ft / 0 m

Popular Alternatives